createdAt,value
2022-12-20T00:02:15.586Z,12.78
2022-12-20T00:04:44.357Z,12.48
2022-12-20T00:07:13.085Z,12.85
2022-12-20T00:09:43.936Z,12.87
2022-12-20T00:12:13.733Z,12.75
2022-12-20T00:14:43.604Z,12.76
2022-12-20T00:17:12.371Z,13.04
2022-12-20T00:19:42.361Z,12.43
2022-12-20T00:22:11.036Z,13.22
2022-12-20T00:24:39.942Z,12.59
2022-12-20T00:27:10.780Z,12.97
2022-12-20T00:29:40.103Z,12.71
2022-12-20T00:32:09.064Z,12.91
2022-12-20T00:34:37.734Z,12.95
2022-12-20T00:37:09.192Z,12.68
2022-12-20T00:39:37.882Z,12.92
2022-12-20T00:42:10.203Z,13.19
2022-12-20T00:44:39.447Z,13.19
2022-12-20T00:47:08.283Z,12.86
2022-12-20T00:49:38.758Z,12.99
2022-12-20T00:52:07.713Z,13.11
2022-12-20T00:54:36.634Z,12.73
2022-12-20T00:57:07.605Z,12.94
2022-12-20T00:59:38.101Z,12.86
2022-12-20T01:02:06.980Z,12.76
2022-12-20T01:04:35.653Z,12.89
2022-12-20T01:07:05.323Z,12.72
2022-12-20T01:09:34.497Z,12.97
2022-12-20T01:12:03.100Z,13.11
2022-12-20T01:14:31.816Z,13.02
2022-12-20T01:17:01.997Z,12.76
2022-12-20T01:19:31.000Z,13.13
2022-12-20T01:21:59.561Z,13.03
2022-12-20T01:24:31.266Z,13.22
2022-12-20T01:27:00.905Z,12.82
2022-12-20T01:29:30.570Z,13.18
2022-12-20T01:32:00.562Z,13.50
2022-12-20T01:34:32.253Z,13.61
2022-12-20T01:37:00.984Z,13.12
2022-12-20T01:39:31.518Z,12.93
2022-12-20T01:42:00.212Z,13.38
2022-12-20T01:45:00.175Z,12.62
2022-12-20T01:47:33.773Z,12.71
2022-12-20T01:50:06.141Z,13.15
2022-12-20T01:52:39.217Z,12.99
2022-12-20T01:55:14.433Z,12.82
2022-12-20T01:57:48.352Z,12.55
2022-12-20T02:00:23.357Z,12.74
2022-12-20T02:02:54.907Z,12.86
2022-12-20T02:05:26.078Z,12.47
2022-12-20T02:07:58.269Z,12.54
2022-12-20T02:10:42.415Z,12.86
2022-12-20T02:13:22.416Z,12.83
2022-12-20T02:15:57.213Z,12.84
2022-12-20T02:18:32.583Z,12.67
2022-12-20T02:21:23.507Z,12.39
2022-12-20T02:24:28.417Z,12.35
2022-12-20T02:27:44.536Z,12.43
2022-12-20T02:30:17.698Z,12.35
2022-12-20T02:33:22.965Z,12.24
2022-12-20T02:35:51.652Z,12.60
2022-12-20T02:38:32.897Z,12.53
2022-12-20T02:41:11.309Z,12.30
2022-12-20T02:44:01.537Z,12.48
2022-12-20T02:46:33.734Z,12.81
2022-12-20T02:49:06.485Z,12.67
2022-12-20T02:51:36.293Z,12.40
2022-12-20T02:54:05.966Z,12.38
2022-12-20T02:56:39.631Z,12.50
2022-12-20T02:59:17.298Z,12.41
2022-12-20T03:01:52.438Z,12.59
2022-12-20T03:04:26.062Z,12.67
2022-12-20T03:07:01.827Z,12.97
2022-12-20T03:09:34.130Z,12.73
2022-12-20T03:12:04.954Z,12.61
2022-12-20T03:14:39.415Z,12.62
2022-12-20T03:17:10.133Z,12.85
2022-12-20T03:19:40.739Z,12.59
2022-12-20T03:22:09.435Z,12.99
2022-12-20T03:24:38.674Z,12.82
2022-12-20T03:27:07.241Z,12.97
2022-12-20T03:29:36.324Z,12.89
2022-12-20T03:32:09.321Z,12.82
2022-12-20T03:34:41.267Z,12.71
2022-12-20T03:37:11.082Z,12.77
2022-12-20T03:39:39.916Z,13.03
2022-12-20T03:42:08.782Z,12.66
2022-12-20T03:44:39.048Z,12.83
2022-12-20T03:47:09.295Z,12.87
2022-12-20T03:49:38.602Z,12.78
2022-12-20T03:52:08.631Z,12.76
2022-12-20T03:54:37.380Z,13.03
2022-12-20T03:57:06.532Z,13.13
2022-12-20T03:59:36.557Z,13.07
2022-12-20T04:02:08.408Z,13.13
2022-12-20T04:04:37.347Z,13.13
2022-12-20T04:07:05.785Z,13.44
2022-12-20T04:09:34.784Z,13.45
2022-12-20T04:12:06.157Z,12.99
2022-12-20T04:14:36.194Z,12.87
2022-12-20T04:17:06.209Z,13.23
2022-12-20T04:19:37.583Z,13.24
2022-12-20T04:22:06.537Z,13.25
2022-12-20T04:24:38.385Z,13.52
2022-12-20T04:27:08.317Z,13.37
2022-12-20T04:29:37.369Z,13.00
2022-12-20T04:32:07.632Z,13.40
2022-12-20T04:34:38.047Z,12.91
2022-12-20T04:37:06.802Z,13.26
2022-12-20T04:39:36.511Z,13.14
2022-12-20T04:42:05.642Z,13.33
2022-12-20T04:44:38.187Z,13.18
2022-12-20T04:47:07.436Z,13.24
2022-12-20T04:49:37.488Z,13.12
2022-12-20T04:52:20.760Z,13.36
2022-12-20T04:54:50.284Z,13.33
2022-12-20T04:57:19.255Z,13.38
2022-12-20T04:59:49.467Z,13.15
2022-12-20T05:02:18.811Z,13.14
2022-12-20T05:04:49.609Z,13.10
2022-12-20T05:07:20.200Z,13.22
2022-12-20T05:09:49.673Z,13.14
2022-12-20T05:12:18.321Z,13.21
2022-12-20T05:14:47.083Z,13.55
2022-12-20T05:17:17.330Z,13.41
2022-12-20T05:19:45.714Z,12.95
2022-12-20T05:22:33.669Z,13.25
2022-12-20T05:25:19.982Z,13.04
2022-12-20T05:27:48.580Z,13.32
2022-12-20T05:30:17.848Z,12.90
2022-12-20T05:32:46.915Z,12.94
2022-12-20T05:35:15.779Z,13.27
2022-12-20T05:37:45.721Z,13.00
2022-12-20T05:40:14.827Z,13.55
2022-12-20T05:42:44.039Z,13.13
2022-12-20T05:45:15.109Z,13.34
2022-12-20T05:47:43.803Z,13.36
2022-12-20T05:50:18.521Z,13.29
2022-12-20T05:52:50.248Z,13.64
2022-12-20T05:55:20.636Z,13.28
2022-12-20T05:57:49.578Z,13.49
2022-12-20T06:00:18.593Z,12.96
2022-12-20T06:02:47.415Z,13.13
2022-12-20T06:05:16.519Z,13.06
2022-12-20T06:07:45.469Z,13.55
2022-12-20T06:10:19.711Z,13.39
2022-12-20T06:12:48.000Z,13.23
2022-12-20T06:15:16.982Z,13.53
2022-12-20T06:17:45.783Z,13.37
2022-12-20T06:20:14.877Z,13.20
2022-12-20T06:22:43.609Z,13.32
2022-12-20T06:25:15.443Z,13.45
2022-12-20T06:27:45.863Z,13.63
2022-12-20T06:30:15.664Z,13.77
2022-12-20T06:32:44.326Z,13.68
2022-12-20T06:35:13.305Z,13.71
2022-12-20T06:37:43.767Z,13.26
2022-12-20T06:40:14.897Z,13.95
2022-12-20T06:42:47.285Z,13.58
2022-12-20T06:45:16.532Z,13.50
2022-12-20T06:47:45.543Z,13.56
2022-12-20T06:50:18.968Z,13.87
2022-12-20T06:52:47.737Z,13.87
2022-12-20T06:55:17.062Z,13.88
2022-12-20T06:57:47.111Z,13.63
2022-12-20T07:00:17.816Z,13.97
2022-12-20T07:02:46.949Z,13.72
2022-12-20T07:05:15.969Z,13.43
2022-12-20T07:07:45.560Z,13.40
2022-12-20T07:10:19.377Z,13.57
2022-12-20T07:12:49.978Z,13.41
2022-12-20T07:15:18.877Z,13.47
2022-12-20T07:17:47.309Z,13.54
2022-12-20T07:20:16.905Z,13.24
2022-12-20T07:22:48.029Z,13.54
2022-12-20T07:25:16.978Z,13.85
2022-12-20T07:27:51.255Z,13.41
2022-12-20T07:30:21.388Z,13.46
2022-12-20T07:32:50.295Z,13.96
2022-12-20T07:35:20.840Z,13.40
2022-12-20T07:37:54.285Z,13.70
2022-12-20T07:40:25.710Z,13.83
2022-12-20T07:42:56.667Z,13.72
2022-12-20T07:45:26.695Z,14.00
2022-12-20T07:47:58.373Z,13.81
2022-12-20T07:50:38.295Z,14.15
2022-12-20T07:53:10.295Z,14.08
2022-12-20T07:55:40.390Z,14.22
2022-12-20T07:58:14.594Z,13.98
2022-12-20T08:00:43.449Z,13.72
2022-12-20T08:03:17.995Z,13.90
2022-12-20T08:05:52.404Z,14.18
2022-12-20T08:08:22.212Z,13.99
2022-12-20T08:10:53.094Z,13.73
2022-12-20T08:13:25.364Z,13.66
2022-12-20T08:15:54.309Z,13.62
2022-12-20T08:18:25.046Z,13.61
2022-12-20T08:20:54.276Z,13.36
2022-12-20T08:23:22.815Z,13.89
2022-12-20T08:25:51.652Z,13.90
2022-12-20T08:28:21.305Z,13.61
2022-12-20T08:30:51.238Z,13.68
2022-12-20T08:33:20.475Z,13.70
2022-12-20T08:35:49.030Z,13.70
2022-12-20T08:38:17.585Z,13.49
2022-12-20T08:40:48.871Z,13.49
2022-12-20T08:43:17.927Z,13.34
2022-12-20T08:45:49.505Z,13.60
2022-12-20T08:48:21.573Z,13.59
2022-12-20T08:50:56.422Z,13.58
2022-12-20T08:53:25.733Z,13.14
2022-12-20T08:55:55.312Z,13.02
2022-12-20T08:58:24.489Z,13.43
2022-12-20T09:00:54.257Z,13.21
2022-12-20T09:03:24.809Z,13.78
2022-12-20T09:05:53.677Z,13.43
2022-12-20T09:08:22.634Z,13.50
2022-12-20T09:10:52.481Z,13.13
2022-12-20T09:13:21.612Z,13.10
2022-12-20T09:15:50.197Z,13.43
2022-12-20T09:18:18.477Z,13.26
2022-12-20T09:20:48.747Z,13.22
2022-12-20T09:23:22.196Z,12.90
2022-12-20T09:25:54.001Z,13.26
2022-12-20T09:28:24.216Z,12.80
2022-12-20T09:30:53.751Z,13.20
2022-12-20T09:33:22.277Z,12.73
2022-12-20T09:35:52.528Z,13.10
2022-12-20T09:38:21.054Z,13.25
2022-12-20T09:40:52.284Z,12.91
2022-12-20T09:43:25.381Z,13.26
2022-12-20T09:45:58.739Z,13.07
2022-12-20T09:48:32.924Z,12.69
2022-12-20T09:51:22.391Z,12.63
2022-12-20T09:54:02.921Z,12.97
2022-12-20T09:56:38.597Z,12.88
2022-12-20T09:59:13.164Z,12.58
2022-12-20T10:01:47.376Z,13.10
2022-12-20T10:04:23.060Z,13.00
2022-12-20T10:07:10.199Z,12.96
2022-12-20T10:10:11.974Z,12.89
2022-12-20T10:12:50.993Z,13.25
2022-12-20T10:15:29.100Z,12.78
2022-12-20T10:18:52.481Z,13.16
2022-12-20T10:21:42.273Z,13.10
2022-12-20T10:24:21.131Z,13.26
2022-12-20T10:26:56.498Z,13.14
2022-12-20T10:29:24.764Z,12.99
2022-12-20T10:31:56.423Z,13.16
2022-12-20T10:34:31.587Z,13.09
2022-12-20T10:37:18.625Z,13.02
2022-12-20T10:39:53.965Z,13.21
2022-12-20T10:42:37.284Z,13.12
2022-12-20T10:45:11.360Z,13.04
2022-12-20T10:47:47.090Z,13.24
2022-12-20T10:50:19.386Z,12.80
2022-12-20T10:53:24.506Z,13.05
2022-12-20T10:56:09.486Z,13.35
2022-12-20T10:58:39.575Z,13.30
2022-12-20T11:01:15.974Z,12.96
2022-12-20T11:03:59.023Z,13.22
2022-12-20T11:06:42.146Z,12.97
2022-12-20T11:09:30.266Z,13.13
2022-12-20T11:12:15.112Z,13.51
2022-12-20T11:14:49.646Z,13.29
2022-12-20T11:17:34.511Z,13.38
2022-12-20T11:20:27.029Z,13.55
2022-12-20T11:23:11.836Z,13.25
2022-12-20T11:26:03.200Z,13.04
2022-12-20T11:28:53.752Z,13.38
2022-12-20T11:31:35.641Z,13.11
2022-12-20T11:34:20.005Z,13.28
2022-12-20T11:37:11.052Z,13.48
2022-12-20T11:39:49.797Z,13.50
2022-12-20T11:42:29.179Z,13.47
2022-12-20T11:45:10.856Z,13.55
2022-12-20T11:48:23.425Z,13.40
2022-12-20T11:51:04.307Z,13.79
2022-12-20T11:53:44.758Z,13.67
2022-12-20T11:56:21.231Z,13.64
2022-12-20T11:58:57.993Z,13.49
2022-12-20T12:01:34.227Z,13.51
2022-12-20T12:04:13.689Z,13.44
2022-12-20T12:06:48.239Z,13.51
2022-12-20T12:09:27.892Z,13.67
2022-12-20T12:12:07.291Z,13.43
2022-12-20T12:15:01.291Z,13.44
2022-12-20T12:17:49.967Z,13.71
2022-12-20T12:20:36.650Z,13.56
2022-12-20T12:23:14.697Z,13.29
2022-12-20T12:25:44.282Z,13.24
2022-12-20T12:28:15.393Z,13.73
2022-12-20T12:30:51.856Z,13.18
2022-12-20T12:33:38.166Z,13.22
2022-12-20T12:36:41.371Z,13.41
2022-12-20T12:39:41.014Z,13.48
2022-12-20T12:42:56.980Z,13.46
2022-12-20T12:45:29.764Z,13.45
2022-12-20T12:48:04.240Z,13.66
2022-12-20T12:50:39.590Z,13.56
2022-12-20T12:53:09.727Z,13.06
2022-12-20T12:55:45.858Z,13.21
2022-12-20T12:58:36.146Z,13.34
2022-12-20T13:01:10.229Z,13.21
2022-12-20T13:03:47.463Z,13.58
2022-12-20T13:06:57.193Z,13.80
2022-12-20T13:09:42.718Z,13.63
2022-12-20T13:12:50.462Z,13.57
2022-12-20T13:16:48.762Z,13.34
2022-12-20T13:19:20.895Z,13.11
2022-12-20T13:21:57.789Z,13.39
2022-12-20T13:24:42.512Z,13.44
2022-12-20T13:27:35.744Z,13.37
2022-12-20T13:30:30.652Z,13.24
2022-12-20T13:33:27.815Z,13.43
2022-12-20T13:36:47.762Z,13.36
2022-12-20T13:39:52.056Z,13.26
2022-12-20T13:42:39.630Z,13.48
2022-12-20T13:45:17.230Z,13.45
2022-12-20T13:47:55.401Z,13.42
2022-12-20T13:50:35.793Z,13.51
2022-12-20T13:53:05.742Z,13.36
2022-12-20T13:55:42.598Z,13.56
2022-12-20T13:58:20.056Z,13.20
2022-12-20T14:00:50.583Z,13.58
2022-12-20T14:03:25.440Z,13.29
2022-12-20T14:06:00.741Z,13.67
2022-12-20T14:08:34.055Z,13.21
2022-12-20T14:11:16.351Z,13.60
2022-12-20T14:13:58.036Z,13.63
2022-12-20T14:16:32.256Z,13.34
2022-12-20T14:19:05.798Z,13.73
2022-12-20T14:21:39.783Z,13.25
2022-12-20T14:24:17.413Z,13.37
2022-12-20T14:26:53.006Z,13.75
2022-12-20T14:29:32.631Z,13.76
2022-12-20T14:32:01.567Z,13.67
2022-12-20T14:34:39.636Z,13.30
2022-12-20T14:37:31.332Z,13.59
2022-12-20T14:40:04.372Z,13.35
2022-12-20T14:42:39.574Z,13.80
2022-12-20T14:45:21.878Z,13.74
2022-12-20T14:47:57.506Z,13.78
2022-12-20T14:50:34.215Z,13.70
2022-12-20T14:53:04.166Z,13.85
2022-12-20T14:55:40.657Z,13.54
2022-12-20T14:58:26.786Z,13.74
2022-12-20T15:01:02.293Z,13.46
2022-12-20T15:03:32.247Z,13.86
2022-12-20T15:06:01.885Z,13.24
2022-12-20T15:08:33.977Z,13.54
2022-12-20T15:11:13.620Z,13.82
2022-12-20T15:13:45.582Z,13.84
2022-12-20T15:16:19.769Z,13.83
2022-12-20T15:18:49.183Z,13.28
2022-12-20T15:21:23.438Z,13.74
2022-12-20T15:23:55.214Z,13.83
2022-12-20T15:26:26.885Z,13.68
2022-12-20T15:28:57.771Z,14.05
2022-12-20T15:31:39.603Z,13.68
2022-12-20T15:34:16.789Z,13.58
2022-12-20T15:36:45.724Z,14.07
2022-12-20T15:39:15.544Z,13.74
2022-12-20T15:41:49.500Z,13.79
2022-12-20T15:44:23.639Z,13.53
2022-12-20T15:46:56.107Z,13.67
2022-12-20T15:49:28.448Z,13.80
2022-12-20T15:51:58.685Z,13.49
2022-12-20T15:54:37.144Z,13.57
2022-12-20T15:57:08.590Z,13.80
2022-12-20T16:00:00.588Z,13.58
2022-12-20T16:02:35.269Z,13.63
2022-12-20T16:05:16.693Z,13.86
2022-12-20T16:07:47.505Z,13.92
2022-12-20T16:10:18.632Z,13.69
2022-12-20T16:13:12.203Z,13.84
2022-12-20T16:16:08.246Z,13.40
2022-12-20T16:18:41.624Z,13.55
2022-12-20T16:21:32.320Z,13.59
2022-12-20T16:24:17.395Z,13.58
2022-12-20T16:27:13.001Z,13.76
2022-12-20T16:30:28.720Z,13.54
2022-12-20T16:34:29.346Z,13.62
2022-12-20T16:41:10.476Z,13.70
2022-12-20T16:44:15.272Z,13.58
2022-12-20T16:47:20.409Z,13.39
2022-12-20T16:50:18.112Z,13.64
2022-12-20T16:53:05.720Z,13.36
2022-12-20T16:55:40.122Z,13.60
2022-12-20T16:58:52.430Z,13.71
2022-12-20T17:01:46.838Z,13.10
2022-12-20T17:04:22.738Z,13.05
2022-12-20T17:14:29.307Z,13.34
2022-12-20T17:17:03.813Z,13.45
2022-12-20T17:20:42.326Z,13.22
2022-12-20T17:24:09.408Z,13.51
2022-12-20T17:26:57.383Z,13.45
2022-12-20T17:29:27.348Z,13.38
2022-12-20T17:31:57.350Z,13.55
2022-12-20T17:34:30.204Z,13.69
2022-12-20T17:37:02.126Z,13.09
2022-12-20T17:39:31.485Z,13.49
2022-12-20T17:42:02.033Z,13.25
2022-12-20T17:44:31.886Z,13.37
2022-12-20T17:47:01.237Z,13.46
2022-12-20T17:49:29.852Z,13.52
2022-12-20T17:52:03.163Z,13.39
2022-12-20T17:54:39.420Z,13.54
2022-12-20T17:57:15.791Z,13.19
2022-12-20T17:59:45.070Z,13.10
2022-12-20T18:02:23.342Z,13.24
2022-12-20T18:04:52.804Z,13.54
2022-12-20T18:07:21.850Z,13.45
2022-12-20T18:09:51.183Z,13.67
2022-12-20T18:12:22.422Z,13.69
2022-12-20T18:14:52.703Z,13.44
2022-12-20T18:17:21.133Z,13.58
2022-12-20T18:19:53.484Z,13.26
2022-12-20T18:22:21.882Z,13.62
2022-12-20T18:24:50.629Z,13.55
2022-12-20T18:27:23.730Z,13.54
2022-12-20T18:29:57.348Z,13.51
2022-12-20T18:32:25.863Z,13.48
2022-12-20T18:34:54.298Z,13.53
2022-12-20T18:37:23.290Z,13.58
2022-12-20T18:39:51.641Z,13.46
2022-12-20T18:42:20.101Z,13.30
2022-12-20T18:44:50.244Z,13.33
2022-12-20T18:47:20.373Z,13.35
2022-12-20T18:49:49.416Z,13.13
2022-12-20T18:52:18.093Z,13.59
2022-12-20T18:54:46.861Z,13.47
2022-12-20T18:57:15.500Z,13.51
2022-12-20T18:59:44.033Z,13.68
2022-12-20T19:02:15.469Z,13.63
2022-12-20T19:04:46.103Z,13.44
2022-12-20T19:07:15.697Z,13.60
2022-12-20T19:12:41.623Z,13.50
2022-12-20T19:15:11.525Z,13.37
2022-12-20T19:17:40.105Z,13.57
2022-12-20T19:20:11.819Z,13.37
2022-12-20T19:22:40.295Z,13.47
2022-12-20T19:25:09.709Z,13.38
2022-12-20T19:27:38.659Z,13.58
2022-12-20T19:30:09.804Z,13.50
2022-12-20T19:32:40.459Z,13.43
2022-12-20T19:35:45.077Z,13.42
2022-12-20T19:38:00.123Z,13.60
2022-12-20T19:40:30.553Z,13.68
2022-12-20T19:42:59.112Z,13.45
2022-12-20T19:45:27.898Z,13.55
2022-12-20T19:47:56.928Z,13.49
2022-12-20T19:50:30.628Z,13.56
2022-12-20T19:53:01.733Z,13.66
2022-12-20T19:58:26.353Z,13.50
2022-12-20T20:00:55.783Z,13.19
2022-12-20T20:03:24.665Z,13.30
2022-12-20T20:05:57.282Z,13.46
2022-12-20T20:08:25.993Z,13.39
2022-12-20T20:10:55.286Z,13.61
2022-12-20T20:13:25.268Z,13.34
2022-12-20T20:15:55.194Z,13.65
2022-12-20T20:18:24.450Z,13.64
2022-12-20T20:20:54.706Z,13.56
2022-12-20T20:23:23.728Z,13.53
2022-12-20T20:25:56.848Z,13.33
2022-12-20T20:28:31.712Z,13.35
2022-12-20T20:31:02.731Z,13.16
2022-12-20T20:33:34.328Z,13.26
2022-12-20T20:36:06.048Z,13.21
2022-12-20T20:38:41.484Z,13.32
2022-12-20T20:41:10.668Z,13.48
2022-12-20T20:43:42.447Z,13.42
2022-12-20T20:46:14.009Z,13.31
2022-12-20T20:48:45.272Z,13.36
2022-12-20T20:51:21.104Z,13.40
2022-12-20T20:53:49.600Z,13.37
2022-12-20T20:56:18.453Z,13.44
2022-12-20T20:58:47.224Z,13.41
2022-12-20T21:01:21.208Z,13.36
2022-12-20T21:03:50.034Z,13.39
2022-12-20T21:06:40.639Z,13.34
2022-12-20T21:09:08.746Z,13.41
2022-12-20T21:11:37.650Z,13.17
2022-12-20T21:14:07.364Z,13.25
2022-12-20T21:16:36.946Z,13.34
2022-12-20T21:19:06.640Z,13.41
2022-12-20T21:21:36.601Z,13.40
2022-12-20T21:24:05.686Z,13.39
2022-12-20T21:26:34.171Z,13.46
2022-12-20T21:29:03.241Z,13.29
2022-12-20T21:31:32.194Z,13.42
2022-12-20T21:34:00.875Z,13.38
2022-12-20T21:36:29.902Z,13.12
2022-12-20T21:39:00.435Z,13.39
2022-12-20T21:41:30.526Z,13.31
2022-12-20T21:44:01.976Z,13.34
2022-12-20T21:46:33.576Z,13.22
2022-12-20T21:49:03.083Z,13.21
2022-12-20T21:51:32.332Z,13.29
2022-12-20T21:54:04.241Z,13.23
2022-12-20T21:56:35.724Z,13.21
2022-12-20T21:59:05.533Z,13.07
2022-12-20T22:01:35.721Z,13.17
2022-12-20T22:04:06.979Z,13.01
2022-12-20T22:06:36.160Z,12.95
2022-12-20T22:09:08.814Z,13.12
2022-12-20T22:11:38.682Z,13.01
2022-12-20T22:14:09.192Z,13.11
2022-12-20T22:16:38.507Z,13.03
2022-12-20T22:19:06.984Z,12.82
2022-12-20T22:21:36.782Z,12.74
2022-12-20T22:24:07.896Z,12.61
2022-12-20T22:26:37.011Z,12.84
2022-12-20T22:29:08.027Z,12.69
2022-12-20T22:31:39.062Z,12.78
2022-12-20T22:34:07.787Z,12.81
2022-12-20T22:36:37.028Z,12.92
2022-12-20T22:39:09.462Z,12.82
2022-12-20T22:41:39.107Z,12.77
2022-12-20T22:44:09.996Z,12.87
2022-12-20T22:46:39.061Z,12.81
2022-12-20T22:49:08.150Z,12.83
2022-12-20T22:51:37.245Z,12.78
2022-12-20T22:54:07.516Z,12.81
2022-12-20T22:56:36.011Z,12.71
2022-12-20T22:59:08.114Z,12.47
2022-12-20T23:01:38.873Z,12.53
2022-12-20T23:04:08.581Z,12.47
2022-12-20T23:06:37.721Z,12.50
2022-12-20T23:09:08.548Z,12.41
2022-12-20T23:11:54.677Z,12.23
2022-12-20T23:14:42.067Z,12.19
2022-12-20T23:17:12.134Z,12.17
2022-12-20T23:19:58.652Z,12.13
2022-12-20T23:22:40.954Z,12.06
2022-12-20T23:25:17.544Z,12.05
2022-12-20T23:27:49.300Z,12.01
2022-12-20T23:30:22.100Z,11.90
2022-12-20T23:32:52.665Z,11.88
2022-12-20T23:35:22.437Z,11.94
2022-12-20T23:37:51.119Z,11.97
2022-12-20T23:40:21.794Z,11.91
2022-12-20T23:42:54.374Z,11.93
2022-12-20T23:45:23.260Z,11.87
2022-12-20T23:47:51.719Z,11.98
2022-12-20T23:50:20.145Z,11.87
2022-12-20T23:52:48.993Z,11.83
2022-12-20T23:55:17.638Z,11.82
2022-12-20T23:57:49.619Z,11.72
